createdAt,value
2022-11-30T00:01:00.926Z,36.48
2022-11-30T00:06:08.109Z,36.45
2022-11-30T00:11:15.271Z,36.76
2022-11-30T00:16:22.600Z,36.51
2022-11-30T00:21:29.711Z,36.57
2022-11-30T00:26:36.890Z,36.58
2022-11-30T00:31:44.124Z,36.48
2022-11-30T00:36:51.317Z,36.35
2022-11-30T00:41:58.505Z,36.26
2022-11-30T00:47:05.723Z,36.26
2022-11-30T00:52:12.919Z,36.22
2022-11-30T00:57:20.128Z,36.22
2022-11-30T01:02:27.495Z,36.24
2022-11-30T01:07:34.723Z,36.25
2022-11-30T01:12:41.821Z,36.29
2022-11-30T01:17:49.060Z,36.28
2022-11-30T01:22:56.265Z,36.29
2022-11-30T01:28:03.503Z,36.27
2022-11-30T01:33:10.726Z,36.29
2022-11-30T01:38:17.989Z,36.32
2022-11-30T01:43:25.180Z,36.13
2022-11-30T01:48:32.365Z,36.11
2022-11-30T01:53:39.612Z,36.25
2022-11-30T01:58:46.787Z,36.31
2022-11-30T02:03:53.973Z,36.35
2022-11-30T02:09:01.208Z,36.45
2022-11-30T02:14:08.390Z,36.60
2022-11-30T02:19:15.610Z,36.83
2022-11-30T02:24:22.787Z,37.04
2022-11-30T02:29:33.789Z,37.20
2022-11-30T02:34:41.020Z,37.31
2022-11-30T02:39:48.217Z,37.59
2022-11-30T02:44:55.442Z,37.80
2022-11-30T02:50:02.633Z,38.03
2022-11-30T02:55:09.919Z,38.27
2022-11-30T03:00:17.133Z,38.43
2022-11-30T03:05:24.385Z,38.61
2022-11-30T03:10:31.575Z,38.64
2022-11-30T03:15:38.808Z,38.86
2022-11-30T03:20:45.954Z,38.97
2022-11-30T03:25:53.153Z,39.18
2022-11-30T03:31:00.426Z,39.21
2022-11-30T03:36:07.551Z,39.31
2022-11-30T03:41:14.894Z,39.38
2022-11-30T03:46:22.136Z,39.46
2022-11-30T03:51:29.288Z,39.63
2022-11-30T03:56:36.491Z,39.66
2022-11-30T04:01:43.749Z,39.66
2022-11-30T04:06:50.840Z,39.70
2022-11-30T04:11:58.127Z,39.74
2022-11-30T04:17:05.260Z,39.80
2022-11-30T04:22:12.470Z,39.89
2022-11-30T04:27:19.722Z,39.98
2022-11-30T04:32:26.888Z,40.09
2022-11-30T04:37:34.116Z,40.18
2022-11-30T04:42:41.353Z,40.17
2022-11-30T04:47:48.572Z,40.18
2022-11-30T04:52:55.725Z,40.27
2022-11-30T04:58:02.967Z,40.26
2022-11-30T05:03:10.134Z,40.18
2022-11-30T05:08:17.338Z,40.18
2022-11-30T05:13:24.592Z,40.11
2022-11-30T05:18:31.774Z,40.12
2022-11-30T05:23:38.960Z,40.25
2022-11-30T05:28:46.181Z,40.24
2022-11-30T05:33:53.381Z,40.31
2022-11-30T05:39:00.582Z,40.31
2022-11-30T05:44:07.794Z,40.33
2022-11-30T05:49:14.991Z,40.38
2022-11-30T05:54:22.195Z,40.43
2022-11-30T05:59:29.467Z,40.45
2022-11-30T06:04:36.706Z,40.52
2022-11-30T06:09:43.905Z,40.51
2022-11-30T06:14:51.137Z,40.58
2022-11-30T06:19:58.300Z,40.66
2022-11-30T06:25:05.514Z,40.87
2022-11-30T06:30:12.710Z,41.00
2022-11-30T06:35:19.916Z,40.89
2022-11-30T06:40:27.234Z,41.47
2022-11-30T06:45:34.623Z,41.31
2022-11-30T06:50:46.882Z,41.38
2022-11-30T06:55:48.797Z,41.47
2022-11-30T07:00:56.145Z,41.54
2022-11-30T07:06:03.247Z,41.60
2022-11-30T07:11:10.455Z,41.66
2022-11-30T07:16:17.778Z,41.72
2022-11-30T07:21:24.887Z,41.76
2022-11-30T07:26:32.045Z,41.73
2022-11-30T07:31:39.372Z,41.66
2022-11-30T07:36:46.471Z,41.64
2022-11-30T07:41:53.633Z,41.60
2022-11-30T07:47:00.907Z,41.73
2022-11-30T07:52:08.076Z,40.95
2022-11-30T07:57:15.410Z,40.72
2022-11-30T08:02:22.672Z,40.42
2022-11-30T08:07:29.781Z,40.12
2022-11-30T08:12:36.915Z,39.87
2022-11-30T08:17:44.160Z,39.67
2022-11-30T08:22:51.314Z,39.56
2022-11-30T08:27:58.935Z,39.46
2022-11-30T08:33:06.170Z,39.35
2022-11-30T08:38:13.355Z,39.25
2022-11-30T08:43:20.599Z,39.19
2022-11-30T08:48:27.851Z,39.14
2022-11-30T08:53:35.084Z,39.15
2022-11-30T08:58:42.376Z,39.14
2022-11-30T09:03:49.555Z,39.16
2022-11-30T09:08:56.814Z,39.21
2022-11-30T09:14:03.989Z,39.30
2022-11-30T09:19:11.234Z,39.46
2022-11-30T09:24:18.387Z,39.54
2022-11-30T09:29:28.648Z,39.80
2022-11-30T09:34:35.926Z,40.02
2022-11-30T09:39:43.070Z,40.15
2022-11-30T09:44:50.623Z,40.08
2022-11-30T09:49:57.544Z,40.40
2022-11-30T09:55:04.707Z,40.32
2022-11-30T10:00:11.909Z,39.82
2022-11-30T10:05:19.129Z,39.67
2022-11-30T10:10:34.050Z,39.52
2022-11-30T10:15:33.657Z,39.39
2022-11-30T10:20:40.838Z,39.31
2022-11-30T10:25:47.994Z,39.22
2022-11-30T10:30:55.262Z,39.21
2022-11-30T10:36:02.509Z,39.06
2022-11-30T10:41:09.700Z,39.12
2022-11-30T10:46:17.290Z,38.93
2022-11-30T10:51:24.029Z,38.67
2022-11-30T10:56:31.155Z,38.85
2022-11-30T11:01:38.472Z,38.83
2022-11-30T11:06:45.607Z,38.90
2022-11-30T11:11:52.765Z,39.26
2022-11-30T11:16:59.995Z,39.32
2022-11-30T11:22:07.189Z,39.48
2022-11-30T11:27:14.343Z,39.81
2022-11-30T11:32:21.529Z,39.70
2022-11-30T11:37:28.769Z,39.32
2022-11-30T11:42:36.044Z,39.17
2022-11-30T11:47:43.274Z,39.11
2022-11-30T11:52:50.565Z,38.74
2022-11-30T11:57:57.781Z,38.86
2022-11-30T12:03:05.105Z,38.65
2022-11-30T12:08:12.265Z,38.46
2022-11-30T12:13:19.423Z,38.35
2022-11-30T12:18:26.622Z,38.27
2022-11-30T12:23:33.806Z,38.32
2022-11-30T12:28:40.949Z,38.12
2022-11-30T12:33:48.206Z,38.26
2022-11-30T12:38:55.415Z,38.29
2022-11-30T12:44:02.562Z,38.36
2022-11-30T12:49:09.909Z,38.28
2022-11-30T12:54:17.084Z,38.25
2022-11-30T12:59:24.355Z,38.41
2022-11-30T13:04:31.580Z,38.51
2022-11-30T13:09:38.794Z,38.46
2022-11-30T13:14:46.355Z,38.47
2022-11-30T13:19:53.173Z,38.36
2022-11-30T13:25:00.429Z,38.23
2022-11-30T13:30:07.593Z,38.16
2022-11-30T13:35:14.793Z,38.02
2022-11-30T13:40:22.044Z,37.98
2022-11-30T13:45:29.274Z,37.90
2022-11-30T13:50:36.411Z,37.83
2022-11-30T13:55:43.672Z,37.80
2022-11-30T14:00:50.857Z,37.60
2022-11-30T14:05:58.033Z,37.69
2022-11-30T14:11:05.247Z,37.69
2022-11-30T14:16:12.460Z,37.82
2022-11-30T14:21:19.628Z,37.72
2022-11-30T14:26:26.867Z,37.75
2022-11-30T14:31:34.102Z,37.74
2022-11-30T14:36:41.141Z,37.90
2022-11-30T14:41:48.379Z,37.79
2022-11-30T14:46:55.682Z,37.90
2022-11-30T14:52:02.764Z,37.90
2022-11-30T14:57:10.091Z,38.03
2022-11-30T15:02:17.238Z,38.28
2022-11-30T15:07:24.354Z,38.26
2022-11-30T15:12:31.540Z,38.09
2022-11-30T15:17:38.690Z,37.95
2022-11-30T15:22:45.888Z,37.93
2022-11-30T15:27:53.202Z,37.92
2022-11-30T15:33:00.308Z,37.88
2022-11-30T15:38:07.495Z,37.84
2022-11-30T15:43:14.755Z,37.87
2022-11-30T15:48:21.940Z,37.90
2022-11-30T15:53:29.205Z,37.79
2022-11-30T15:58:36.649Z,37.81
2022-11-30T16:03:44.145Z,37.83
2022-11-30T16:08:51.447Z,37.80
2022-11-30T16:13:58.680Z,37.93
2022-11-30T16:19:05.860Z,37.80
2022-11-30T16:24:13.360Z,37.80
2022-11-30T16:29:20.812Z,37.76
2022-11-30T16:34:27.969Z,37.90
2022-11-30T16:39:35.281Z,37.79
2022-11-30T16:44:42.926Z,38.12
2022-11-30T16:49:50.522Z,38.32
2022-11-30T16:54:57.836Z,38.46
2022-11-30T17:00:05.719Z,38.28
2022-11-30T17:05:12.904Z,38.06
2022-11-30T17:10:20.359Z,37.99
2022-11-30T17:15:27.769Z,38.03
2022-11-30T17:20:35.170Z,37.85
2022-11-30T17:25:42.492Z,37.75
2022-11-30T17:30:49.855Z,37.80
2022-11-30T17:35:58.729Z,37.70
2022-11-30T17:41:06.119Z,37.63
2022-11-30T17:46:13.416Z,37.67
2022-11-30T17:51:20.909Z,37.68
2022-11-30T17:56:28.215Z,37.58
2022-11-30T18:01:35.811Z,37.56
2022-11-30T18:06:43.291Z,37.62
2022-11-30T18:11:51.415Z,37.54
2022-11-30T18:16:58.895Z,37.56
2022-11-30T18:22:06.438Z,37.49
2022-11-30T18:27:14.049Z,37.86
2022-11-30T18:32:21.704Z,37.92
2022-11-30T18:37:29.394Z,38.20
2022-11-30T18:42:37.001Z,38.32
2022-11-30T18:47:44.373Z,38.25
2022-11-30T18:52:51.922Z,38.22
2022-11-30T18:57:59.529Z,38.15
2022-11-30T19:03:07.343Z,38.15
2022-11-30T19:08:14.862Z,38.14
2022-11-30T19:13:22.476Z,38.24
2022-11-30T19:18:30.221Z,38.19
2022-11-30T19:23:37.820Z,38.16
2022-11-30T19:28:45.305Z,38.39
2022-11-30T19:33:53.775Z,39.33
2022-11-30T19:39:01.368Z,41.26
2022-11-30T19:44:09.084Z,40.56
2022-11-30T19:49:17.230Z,40.67
2022-11-30T19:54:24.532Z,40.24
2022-11-30T19:59:32.137Z,40.17
2022-11-30T20:04:39.876Z,39.93
2022-11-30T20:09:48.070Z,39.44
2022-11-30T20:14:55.436Z,39.68
2022-11-30T20:20:03.033Z,39.25
2022-11-30T20:25:10.612Z,39.33
2022-11-30T20:30:18.233Z,39.16
2022-11-30T20:35:26.370Z,38.70
2022-11-30T20:40:33.765Z,38.89
2022-11-30T20:45:41.391Z,38.69
2022-11-30T20:51:21.692Z,38.39
2022-11-30T20:55:56.603Z,38.38
2022-11-30T21:01:04.195Z,38.38
2022-11-30T21:06:12.831Z,37.92
2022-11-30T21:11:20.500Z,38.32
2022-11-30T21:16:29.141Z,38.19
2022-11-30T21:21:35.044Z,37.99
2022-11-30T21:26:42.185Z,38.16
2022-11-30T21:31:49.336Z,38.16
2022-11-30T21:36:56.536Z,37.95
2022-11-30T21:42:03.706Z,38.03
2022-11-30T21:47:10.909Z,38.05
2022-11-30T21:52:18.137Z,37.83
2022-11-30T21:57:25.320Z,38.04
2022-11-30T22:02:32.568Z,37.59
2022-11-30T22:07:39.778Z,37.67
2022-11-30T22:12:46.961Z,37.81
2022-11-30T22:17:54.152Z,37.61
2022-11-30T22:23:01.403Z,37.58
2022-11-30T22:28:08.626Z,37.61
2022-11-30T22:33:15.891Z,37.31
2022-11-30T22:38:23.086Z,37.49
2022-11-30T22:43:30.307Z,37.08
2022-11-30T22:48:37.488Z,37.11
2022-11-30T22:53:44.764Z,37.20
2022-11-30T22:58:51.980Z,36.96
2022-11-30T23:03:59.253Z,37.19
2022-11-30T23:09:06.350Z,36.93
2022-11-30T23:14:13.537Z,37.14
2022-11-30T23:19:20.699Z,36.87
2022-11-30T23:24:27.920Z,37.24
2022-11-30T23:29:35.103Z,36.92
2022-11-30T23:34:43.503Z,37.09
2022-11-30T23:39:49.843Z,36.99
2022-11-30T23:44:56.739Z,37.08
2022-11-30T23:50:03.921Z,36.80
2022-11-30T23:55:11.180Z,36.68
